sensor_id;sensor_type;location;lat;lon;timestamp;P1;durP1;ratioP1;P2;durP2;ratioP2
48241;SDS011;34041;51.812;4.622;2022-11-28T00:01:03;4.47;;;3.63;;
48241;SDS011;34041;51.812;4.622;2022-11-28T00:04:04;4.07;;;3.30;;
48241;SDS011;34041;51.812;4.622;2022-11-28T00:07:05;4.78;;;3.38;;
48241;SDS011;34041;51.812;4.622;2022-11-28T00:10:05;3.67;;;2.90;;
48241;SDS011;34041;51.812;4.622;2022-11-28T00:13:06;4.30;;;3.00;;
48241;SDS011;34041;51.812;4.622;2022-11-28T00:16:07;5.10;;;3.83;;
48241;SDS011;34041;51.812;4.622;2022-11-28T00:19:09;5.70;;;3.08;;
48241;SDS011;34041;51.812;4.622;2022-11-28T00:22:09;6.90;;;4.00;;
48241;SDS011;34041;51.812;4.622;2022-11-28T00:25:10;4.72;;;3.80;;
48241;SDS011;34041;51.812;4.622;2022-11-28T00:28:10;4.97;;;3.87;;
48241;SDS011;34041;51.812;4.622;2022-11-28T00:31:32;3.87;;;3.43;;
48241;SDS011;34041;51.812;4.622;2022-11-28T00:34:31;3.78;;;2.67;;
48241;SDS011;34041;51.812;4.622;2022-11-28T00:37:31;4.93;;;3.80;;
48241;SDS011;34041;51.812;4.622;2022-11-28T00:40:32;5.43;;;3.70;;
48241;SDS011;34041;51.812;4.622;2022-11-28T00:43:32;4.67;;;3.83;;
48241;SDS011;34041;51.812;4.622;2022-11-28T00:46:33;4.32;;;3.25;;
48241;SDS011;34041;51.812;4.622;2022-11-28T00:49:33;4.55;;;3.30;;
48241;SDS011;34041;51.812;4.622;2022-11-28T00:52:33;4.45;;;3.50;;
48241;SDS011;34041;51.812;4.622;2022-11-28T00:55:36;4.40;;;3.37;;
48241;SDS011;34041;51.812;4.622;2022-11-28T00:58:37;5.03;;;3.35;;
48241;SDS011;34041;51.812;4.622;2022-11-28T01:01:39;4.32;;;3.83;;
48241;SDS011;34041;51.812;4.622;2022-11-28T01:04:39;4.32;;;3.53;;
48241;SDS011;34041;51.812;4.622;2022-11-28T01:07:39;4.30;;;3.40;;
48241;SDS011;34041;51.812;4.622;2022-11-28T01:10:41;4.45;;;3.30;;
48241;SDS011;34041;51.812;4.622;2022-11-28T01:13:42;3.97;;;3.53;;
48241;SDS011;34041;51.812;4.622;2022-11-28T01:16:42;3.30;;;3.00;;
48241;SDS011;34041;51.812;4.622;2022-11-28T01:19:42;4.77;;;3.23;;
48241;SDS011;34041;51.812;4.622;2022-11-28T01:22:42;3.70;;;3.00;;
48241;SDS011;34041;51.812;4.622;2022-11-28T01:25:43;4.00;;;2.92;;
48241;SDS011;34041;51.812;4.622;2022-11-28T01:28:43;3.90;;;2.77;;
48241;SDS011;34041;51.812;4.622;2022-11-28T01:31:43;3.42;;;2.38;;
48241;SDS011;34041;51.812;4.622;2022-11-28T01:34:43;3.43;;;2.47;;
48241;SDS011;34041;51.812;4.622;2022-11-28T01:37:44;3.77;;;2.87;;
48241;SDS011;34041;51.812;4.622;2022-11-28T01:40:44;3.47;;;2.60;;
48241;SDS011;34041;51.812;4.622;2022-11-28T01:44:02;3.50;;;2.50;;
48241;SDS011;34041;51.812;4.622;2022-11-28T01:47:02;4.07;;;2.53;;
48241;SDS011;34041;51.812;4.622;2022-11-28T01:50:03;4.17;;;2.57;;
48241;SDS011;34041;51.812;4.622;2022-11-28T01:53:04;3.60;;;2.50;;
48241;SDS011;34041;51.812;4.622;2022-11-28T01:56:07;3.13;;;2.50;;
48241;SDS011;34041;51.812;4.622;2022-11-28T01:59:09;2.67;;;2.20;;
48241;SDS011;34041;51.812;4.622;2022-11-28T02:02:12;2.65;;;1.83;;
48241;SDS011;34041;51.812;4.622;2022-11-28T02:05:15;3.00;;;2.20;;
48241;SDS011;34041;51.812;4.622;2022-11-28T02:08:15;3.97;;;2.40;;
48241;SDS011;34041;51.812;4.622;2022-11-28T02:21:17;3.00;;;2.55;;
48241;SDS011;34041;51.812;4.622;2022-11-28T02:34:22;3.25;;;2.30;;
48241;SDS011;34041;51.812;4.622;2022-11-28T02:37:29;2.80;;;2.08;;
48241;SDS011;34041;51.812;4.622;2022-11-28T02:40:38;4.00;;;2.33;;
48241;SDS011;34041;51.812;4.622;2022-11-28T02:44:08;2.70;;;2.30;;
48241;SDS011;34041;51.812;4.622;2022-11-28T02:50:21;3.88;;;1.90;;
48241;SDS011;34041;51.812;4.622;2022-11-28T02:53:23;2.88;;;1.90;;
48241;SDS011;34041;51.812;4.622;2022-11-28T06:32:53;6.97;;;5.82;;
48241;SDS011;34041;51.812;4.622;2022-11-28T06:35:59;6.80;;;5.60;;
48241;SDS011;34041;51.812;4.622;2022-11-28T06:39:00;7.50;;;5.97;;
48241;SDS011;34041;51.812;4.622;2022-11-28T06:42:00;8.77;;;7.57;;
48241;SDS011;34041;51.812;4.622;2022-11-28T06:45:01;7.85;;;6.32;;
48241;SDS011;34041;51.812;4.622;2022-11-28T06:48:02;9.48;;;7.47;;
48241;SDS011;34041;51.812;4.622;2022-11-28T06:51:04;7.93;;;6.55;;
48241;SDS011;34041;51.812;4.622;2022-11-28T06:54:04;7.80;;;6.90;;
48241;SDS011;34041;51.812;4.622;2022-11-28T06:57:05;11.65;;;8.30;;
48241;SDS011;34041;51.812;4.622;2022-11-28T07:00:05;8.93;;;7.70;;
48241;SDS011;34041;51.812;4.622;2022-11-28T07:03:06;8.98;;;7.25;;
48241;SDS011;34041;51.812;4.622;2022-11-28T07:06:06;10.00;;;7.37;;
48241;SDS011;34041;51.812;4.622;2022-11-28T07:09:06;8.95;;;7.45;;
48241;SDS011;34041;51.812;4.622;2022-11-28T07:12:07;9.70;;;7.60;;
48241;SDS011;34041;51.812;4.622;2022-11-28T07:15:07;8.43;;;7.53;;
48241;SDS011;34041;51.812;4.622;2022-11-28T07:18:07;8.75;;;7.50;;
48241;SDS011;34041;51.812;4.622;2022-11-28T07:21:08;10.50;;;8.40;;
48241;SDS011;34041;51.812;4.622;2022-11-28T07:24:08;10.85;;;8.70;;
48241;SDS011;34041;51.812;4.622;2022-11-28T07:27:08;10.35;;;8.13;;
48241;SDS011;34041;51.812;4.622;2022-11-28T07:30:09;13.77;;;8.83;;
48241;SDS011;34041;51.812;4.622;2022-11-28T07:33:09;10.15;;;8.60;;
48241;SDS011;34041;51.812;4.622;2022-11-28T07:36:13;10.43;;;8.60;;
48241;SDS011;34041;51.812;4.622;2022-11-28T07:39:14;9.13;;;8.18;;
48241;SDS011;34041;51.812;4.622;2022-11-28T07:42:15;10.23;;;9.07;;
48241;SDS011;34041;51.812;4.622;2022-11-28T07:45:15;13.48;;;9.35;;
48241;SDS011;34041;51.812;4.622;2022-11-28T07:48:15;11.40;;;9.05;;
48241;SDS011;34041;51.812;4.622;2022-11-28T07:51:17;12.57;;;9.90;;
48241;SDS011;34041;51.812;4.622;2022-11-28T07:54:18;13.10;;;9.80;;
48241;SDS011;34041;51.812;4.622;2022-11-28T07:57:18;13.23;;;9.95;;
48241;SDS011;34041;51.812;4.622;2022-11-28T08:00:18;16.53;;;10.17;;
48241;SDS011;34041;51.812;4.622;2022-11-28T08:03:19;13.48;;;10.40;;
48241;SDS011;34041;51.812;4.622;2022-11-28T08:06:20;13.77;;;9.73;;
48241;SDS011;34041;51.812;4.622;2022-11-28T08:09:21;16.55;;;10.73;;
48241;SDS011;34041;51.812;4.622;2022-11-28T08:12:21;16.45;;;10.63;;
48241;SDS011;34041;51.812;4.622;2022-11-28T08:15:21;15.18;;;11.35;;
48241;SDS011;34041;51.812;4.622;2022-11-28T08:18:22;15.73;;;11.43;;
48241;SDS011;34041;51.812;4.622;2022-11-28T08:21:23;14.38;;;11.32;;
48241;SDS011;34041;51.812;4.622;2022-11-28T08:24:24;17.20;;;11.05;;
48241;SDS011;34041;51.812;4.622;2022-11-28T08:27:24;13.53;;;10.43;;
48241;SDS011;34041;51.812;4.622;2022-11-28T08:30:24;18.83;;;13.77;;
48241;SDS011;34041;51.812;4.622;2022-11-28T08:33:24;17.00;;;12.35;;
48241;SDS011;34041;51.812;4.622;2022-11-28T08:36:25;18.15;;;12.48;;
48241;SDS011;34041;51.812;4.622;2022-11-28T08:39:25;15.95;;;11.57;;
48241;SDS011;34041;51.812;4.622;2022-11-28T08:42:26;19.23;;;12.97;;
48241;SDS011;34041;51.812;4.622;2022-11-28T08:45:26;17.83;;;12.80;;
48241;SDS011;34041;51.812;4.622;2022-11-28T08:48:27;19.13;;;12.20;;
48241;SDS011;34041;51.812;4.622;2022-11-28T08:51:27;17.10;;;12.40;;
48241;SDS011;34041;51.812;4.622;2022-11-28T08:54:29;13.80;;;12.02;;
48241;SDS011;34041;51.812;4.622;2022-11-28T08:57:29;15.67;;;12.83;;
48241;SDS011;34041;51.812;4.622;2022-11-28T09:00:29;16.23;;;12.80;;
48241;SDS011;34041;51.812;4.622;2022-11-28T09:03:30;17.17;;;12.55;;
48241;SDS011;34041;51.812;4.622;2022-11-28T09:06:31;17.07;;;13.63;;
48241;SDS011;34041;51.812;4.622;2022-11-28T09:09:31;15.73;;;12.30;;
48241;SDS011;34041;51.812;4.622;2022-11-28T09:12:31;15.13;;;11.33;;
48241;SDS011;34041;51.812;4.622;2022-11-28T09:15:31;16.00;;;11.93;;
48241;SDS011;34041;51.812;4.622;2022-11-28T09:18:32;16.38;;;11.38;;
48241;SDS011;34041;51.812;4.622;2022-11-28T09:21:32;16.50;;;13.13;;
48241;SDS011;34041;51.812;4.622;2022-11-28T09:24:32;16.13;;;11.33;;
48241;SDS011;34041;51.812;4.622;2022-11-28T09:27:32;16.50;;;11.27;;
48241;SDS011;34041;51.812;4.622;2022-11-28T09:30:33;14.47;;;11.33;;
48241;SDS011;34041;51.812;4.622;2022-11-28T09:33:33;15.40;;;11.93;;
48241;SDS011;34041;51.812;4.622;2022-11-28T09:36:33;13.50;;;11.95;;
48241;SDS011;34041;51.812;4.622;2022-11-28T09:39:34;14.65;;;11.15;;
48241;SDS011;34041;51.812;4.622;2022-11-28T09:42:37;16.50;;;11.70;;
48241;SDS011;34041;51.812;4.622;2022-11-28T09:45:37;16.77;;;12.45;;
48241;SDS011;34041;51.812;4.622;2022-11-28T09:48:40;15.68;;;12.55;;
48241;SDS011;34041;51.812;4.622;2022-11-28T09:57:51;19.00;;;13.50;;
48241;SDS011;34041;51.812;4.622;2022-11-28T10:00:55;17.02;;;12.43;;
48241;SDS011;34041;51.812;4.622;2022-11-28T10:04:01;16.27;;;13.50;;
48241;SDS011;34041;51.812;4.622;2022-11-28T10:10:16;17.42;;;13.90;;
48241;SDS011;34041;51.812;4.622;2022-11-28T10:13:41;19.60;;;14.02;;
48241;SDS011;34041;51.812;4.622;2022-11-28T10:19:46;14.68;;;12.20;;
48241;SDS011;34041;51.812;4.622;2022-11-28T10:22:55;23.38;;;14.38;;
48241;SDS011;34041;51.812;4.622;2022-11-28T10:25:58;18.92;;;14.10;;
48241;SDS011;34041;51.812;4.622;2022-11-28T10:28:59;16.52;;;12.45;;
48241;SDS011;34041;51.812;4.622;2022-11-28T10:32:01;20.10;;;14.60;;
48241;SDS011;34041;51.812;4.622;2022-11-28T10:35:04;20.67;;;15.77;;
48241;SDS011;34041;51.812;4.622;2022-11-28T10:38:08;19.75;;;14.73;;
48241;SDS011;34041;51.812;4.622;2022-11-28T10:41:13;21.40;;;15.40;;
48241;SDS011;34041;51.812;4.622;2022-11-28T10:44:23;20.27;;;15.93;;
48241;SDS011;34041;51.812;4.622;2022-11-28T10:50:38;22.20;;;15.43;;
48241;SDS011;34041;51.812;4.622;2022-11-28T10:57:05;20.52;;;14.55;;
48241;SDS011;34041;51.812;4.622;2022-11-28T11:00:08;19.27;;;15.45;;
48241;SDS011;34041;51.812;4.622;2022-11-28T11:03:12;19.17;;;15.60;;
48241;SDS011;34041;51.812;4.622;2022-11-28T11:06:13;20.33;;;15.65;;
48241;SDS011;34041;51.812;4.622;2022-11-28T11:09:13;19.60;;;14.90;;
48241;SDS011;34041;51.812;4.622;2022-11-28T11:12:23;19.63;;;17.07;;
48241;SDS011;34041;51.812;4.622;2022-11-28T11:18:30;17.17;;;14.90;;
48241;SDS011;34041;51.812;4.622;2022-11-28T11:21:30;20.58;;;15.93;;
48241;SDS011;34041;51.812;4.622;2022-11-28T11:24:31;19.23;;;13.70;;
48241;SDS011;34041;51.812;4.622;2022-11-28T11:27:31;19.02;;;16.33;;
48241;SDS011;34041;51.812;4.622;2022-11-28T11:30:35;19.77;;;16.15;;
48241;SDS011;34041;51.812;4.622;2022-11-28T11:33:41;18.13;;;16.25;;
48241;SDS011;34041;51.812;4.622;2022-11-28T11:36:42;22.08;;;15.68;;
48241;SDS011;34041;51.812;4.622;2022-11-28T11:39:49;29.80;;;19.53;;
48241;SDS011;34041;51.812;4.622;2022-11-28T11:42:57;19.25;;;15.43;;
48241;SDS011;34041;51.812;4.622;2022-11-28T11:46:08;19.30;;;15.07;;
48241;SDS011;34041;51.812;4.622;2022-11-28T11:49:09;18.40;;;16.42;;
48241;SDS011;34041;51.812;4.622;2022-11-28T11:52:26;17.60;;;15.48;;
48241;SDS011;34041;51.812;4.622;2022-11-28T11:55:27;18.75;;;16.33;;
48241;SDS011;34041;51.812;4.622;2022-11-28T11:58:33;20.15;;;16.25;;
48241;SDS011;34041;51.812;4.622;2022-11-28T12:01:34;25.77;;;17.75;;
48241;SDS011;34041;51.812;4.622;2022-11-28T12:04:42;17.80;;;14.50;;
48241;SDS011;34041;51.812;4.622;2022-11-28T12:07:49;17.73;;;15.60;;
48241;SDS011;34041;51.812;4.622;2022-11-28T12:27:03;20.27;;;15.60;;
48241;SDS011;34041;51.812;4.622;2022-11-28T12:36:32;19.50;;;15.77;;
48241;SDS011;34041;51.812;4.622;2022-11-28T12:42:40;17.67;;;14.40;;
48241;SDS011;34041;51.812;4.622;2022-11-28T12:45:48;19.42;;;16.48;;
48241;SDS011;34041;51.812;4.622;2022-11-28T13:10:42;15.38;;;13.00;;
48241;SDS011;34041;51.812;4.622;2022-11-28T13:16:48;16.23;;;12.55;;
48241;SDS011;34041;51.812;4.622;2022-11-28T13:20:01;17.55;;;13.68;;
48241;SDS011;34041;51.812;4.622;2022-11-28T13:23:21;20.33;;;12.93;;
48241;SDS011;34041;51.812;4.622;2022-11-28T13:29:42;14.55;;;12.85;;
48241;SDS011;34041;51.812;4.622;2022-11-28T13:32:45;13.35;;;11.95;;
48241;SDS011;34041;51.812;4.622;2022-11-28T13:35:47;12.57;;;10.43;;
48241;SDS011;34041;51.812;4.622;2022-11-28T13:39:12;15.45;;;12.50;;
48241;SDS011;34041;51.812;4.622;2022-11-28T13:45:21;12.75;;;10.73;;
48241;SDS011;34041;51.812;4.622;2022-11-28T13:51:42;12.85;;;11.20;;
48241;SDS011;34041;51.812;4.622;2022-11-28T13:57:49;14.75;;;11.45;;
48241;SDS011;34041;51.812;4.622;2022-11-28T14:01:01;11.80;;;10.52;;
48241;SDS011;34041;51.812;4.622;2022-11-28T14:04:08;14.88;;;10.05;;
48241;SDS011;34041;51.812;4.622;2022-11-28T14:07:19;11.60;;;9.68;;
48241;SDS011;34041;51.812;4.622;2022-11-28T14:11:09;10.65;;;8.88;;
48241;SDS011;34041;51.812;4.622;2022-11-28T14:13:59;11.57;;;8.20;;
48241;SDS011;34041;51.812;4.622;2022-11-28T14:23:25;12.88;;;8.75;;
48241;SDS011;34041;51.812;4.622;2022-11-28T14:26:37;10.68;;;8.20;;
48241;SDS011;34041;51.812;4.622;2022-11-28T14:29:39;10.60;;;7.93;;
48241;SDS011;34041;51.812;4.622;2022-11-28T14:32:40;9.45;;;8.45;;
48241;SDS011;34041;51.812;4.622;2022-11-28T14:39:00;10.00;;;8.75;;
48241;SDS011;34041;51.812;4.622;2022-11-28T14:45:10;13.38;;;9.40;;
48241;SDS011;34041;51.812;4.622;2022-11-28T14:52:02;13.52;;;9.00;;
48241;SDS011;34041;51.812;4.622;2022-11-28T14:54:41;12.50;;;8.40;;
48241;SDS011;34041;51.812;4.622;2022-11-28T15:00:53;10.35;;;7.82;;
48241;SDS011;34041;51.812;4.622;2022-11-28T15:10:14;12.50;;;7.28;;
48241;SDS011;34041;51.812;4.622;2022-11-28T15:13:37;13.70;;;7.85;;
48241;SDS011;34041;51.812;4.622;2022-11-28T15:16:41;10.57;;;6.97;;
48241;SDS011;34041;51.812;4.622;2022-11-28T15:19:43;9.60;;;8.07;;
48241;SDS011;34041;51.812;4.622;2022-11-28T15:22:44;10.18;;;6.80;;
48241;SDS011;34041;51.812;4.622;2022-11-28T15:25:45;8.68;;;6.93;;
48241;SDS011;34041;51.812;4.622;2022-11-28T15:29:06;13.40;;;7.60;;
48241;SDS011;34041;51.812;4.622;2022-11-28T15:32:06;10.15;;;7.30;;
48241;SDS011;34041;51.812;4.622;2022-11-28T15:35:09;10.25;;;8.05;;
48241;SDS011;34041;51.812;4.622;2022-11-28T15:38:11;10.68;;;7.20;;
48241;SDS011;34041;51.812;4.622;2022-11-28T15:41:13;8.98;;;6.15;;
48241;SDS011;34041;51.812;4.622;2022-11-28T15:44:18;9.98;;;7.63;;
48241;SDS011;34041;51.812;4.622;2022-11-28T15:47:19;7.25;;;5.80;;
48241;SDS011;34041;51.812;4.622;2022-11-28T15:50:24;11.07;;;7.28;;
48241;SDS011;34041;51.812;4.622;2022-11-28T15:53:24;10.10;;;7.90;;
48241;SDS011;34041;51.812;4.622;2022-11-28T15:56:25;9.52;;;7.68;;
48241;SDS011;34041;51.812;4.622;2022-11-28T15:59:25;11.52;;;7.65;;
48241;SDS011;34041;51.812;4.622;2022-11-28T16:05:27;8.25;;;6.68;;
48241;SDS011;34041;51.812;4.622;2022-11-28T16:08:29;10.57;;;7.15;;
48241;SDS011;34041;51.812;4.622;2022-11-28T16:11:31;9.57;;;7.22;;
48241;SDS011;34041;51.812;4.622;2022-11-28T16:14:32;13.38;;;8.88;;
48241;SDS011;34041;51.812;4.622;2022-11-28T16:17:33;9.80;;;6.97;;
48241;SDS011;34041;51.812;4.622;2022-11-28T16:20:34;9.88;;;6.75;;
48241;SDS011;34041;51.812;4.622;2022-11-28T16:23:34;10.43;;;7.18;;
48241;SDS011;34041;51.812;4.622;2022-11-28T16:26:36;12.48;;;7.93;;
48241;SDS011;34041;51.812;4.622;2022-11-28T16:29:42;11.25;;;7.93;;
48241;SDS011;34041;51.812;4.622;2022-11-28T16:32:43;11.20;;;8.07;;
48241;SDS011;34041;51.812;4.622;2022-11-28T16:35:43;11.97;;;8.53;;
48241;SDS011;34041;51.812;4.622;2022-11-28T16:38:44;15.70;;;9.60;;
48241;SDS011;34041;51.812;4.622;2022-11-28T16:41:50;17.48;;;9.77;;
48241;SDS011;34041;51.812;4.622;2022-11-28T16:44:53;15.82;;;10.85;;
48241;SDS011;34041;51.812;4.622;2022-11-28T16:48:16;17.67;;;11.30;;
48241;SDS011;34041;51.812;4.622;2022-11-28T16:54:27;19.90;;;12.82;;
48241;SDS011;34041;51.812;4.622;2022-11-28T16:57:49;16.13;;;11.10;;
48241;SDS011;34041;51.812;4.622;2022-11-28T17:00:58;19.92;;;13.30;;
48241;SDS011;34041;51.812;4.622;2022-11-28T17:03:59;18.17;;;13.60;;
48241;SDS011;34041;51.812;4.622;2022-11-28T17:06:59;17.50;;;13.05;;
48241;SDS011;34041;51.812;4.622;2022-11-28T17:10:04;17.75;;;14.50;;
48241;SDS011;34041;51.812;4.622;2022-11-28T17:13:05;23.98;;;14.70;;
48241;SDS011;34041;51.812;4.622;2022-11-28T17:16:07;18.77;;;14.33;;
48241;SDS011;34041;51.812;4.622;2022-11-28T17:19:08;22.48;;;15.02;;
48241;SDS011;34041;51.812;4.622;2022-11-28T17:22:12;21.10;;;15.37;;
48241;SDS011;34041;51.812;4.622;2022-11-28T17:25:17;17.25;;;14.40;;
48241;SDS011;34041;51.812;4.622;2022-11-28T17:31:18;25.40;;;15.65;;
48241;SDS011;34041;51.812;4.622;2022-11-28T17:37:18;19.63;;;16.27;;
48241;SDS011;34041;51.812;4.622;2022-11-28T17:40:18;22.67;;;16.77;;
48241;SDS011;34041;51.812;4.622;2022-11-28T17:43:35;22.20;;;16.92;;
48241;SDS011;34041;51.812;4.622;2022-11-28T17:46:35;22.37;;;16.57;;
48241;SDS011;34041;51.812;4.622;2022-11-28T17:49:36;22.30;;;18.27;;
48241;SDS011;34041;51.812;4.622;2022-11-28T17:52:36;21.33;;;17.10;;
48241;SDS011;34041;51.812;4.622;2022-11-28T17:55:40;35.60;;;18.77;;
48241;SDS011;34041;51.812;4.622;2022-11-28T17:58:41;21.60;;;15.30;;
48241;SDS011;34041;51.812;4.622;2022-11-28T18:01:41;26.58;;;18.77;;
48241;SDS011;34041;51.812;4.622;2022-11-28T18:04:42;26.00;;;18.52;;
48241;SDS011;34041;51.812;4.622;2022-11-28T18:07:42;23.43;;;18.77;;
48241;SDS011;34041;51.812;4.622;2022-11-28T18:10:42;28.15;;;18.73;;
48241;SDS011;34041;51.812;4.622;2022-11-28T18:13:44;23.92;;;17.48;;
48241;SDS011;34041;51.812;4.622;2022-11-28T18:16:44;24.83;;;18.60;;
48241;SDS011;34041;51.812;4.622;2022-11-28T18:19:44;25.37;;;19.00;;
48241;SDS011;34041;51.812;4.622;2022-11-28T18:22:45;22.03;;;16.80;;
48241;SDS011;34041;51.812;4.622;2022-11-28T18:25:45;24.55;;;17.80;;
48241;SDS011;34041;51.812;4.622;2022-11-28T18:28:45;25.85;;;19.33;;
48241;SDS011;34041;51.812;4.622;2022-11-28T18:31:46;22.05;;;16.30;;
48241;SDS011;34041;51.812;4.622;2022-11-28T18:34:46;21.52;;;16.40;;
48241;SDS011;34041;51.812;4.622;2022-11-28T18:37:46;23.37;;;17.20;;
48241;SDS011;34041;51.812;4.622;2022-11-28T18:40:46;21.98;;;17.33;;
48241;SDS011;34041;51.812;4.622;2022-11-28T18:43:47;21.63;;;17.83;;
48241;SDS011;34041;51.812;4.622;2022-11-28T18:46:47;28.73;;;18.07;;
48241;SDS011;34041;51.812;4.622;2022-11-28T18:49:47;27.33;;;20.30;;
48241;SDS011;34041;51.812;4.622;2022-11-28T18:52:47;28.30;;;20.00;;
48241;SDS011;34041;51.812;4.622;2022-11-28T18:55:48;30.30;;;21.35;;
48241;SDS011;34041;51.812;4.622;2022-11-28T18:58:49;37.10;;;26.00;;
48241;SDS011;34041;51.812;4.622;2022-11-28T19:01:50;51.38;;;26.80;;
48241;SDS011;34041;51.812;4.622;2022-11-28T19:04:51;44.10;;;28.25;;
48241;SDS011;34041;51.812;4.622;2022-11-28T19:07:51;49.57;;;28.23;;
48241;SDS011;34041;51.812;4.622;2022-11-28T19:10:51;57.90;;;32.30;;
48241;SDS011;34041;51.812;4.622;2022-11-28T19:13:51;53.37;;;31.77;;
48241;SDS011;34041;51.812;4.622;2022-11-28T19:16:52;50.38;;;30.90;;
48241;SDS011;34041;51.812;4.622;2022-11-28T19:19:53;56.22;;;29.58;;
48241;SDS011;34041;51.812;4.622;2022-11-28T19:22:53;44.77;;;28.10;;
48241;SDS011;34041;51.812;4.622;2022-11-28T19:25:53;39.17;;;26.93;;
48241;SDS011;34041;51.812;4.622;2022-11-28T19:28:53;45.93;;;25.10;;
48241;SDS011;34041;51.812;4.622;2022-11-28T19:31:54;41.28;;;24.63;;
48241;SDS011;34041;51.812;4.622;2022-11-28T19:34:54;40.55;;;24.50;;
48241;SDS011;34041;51.812;4.622;2022-11-28T19:37:54;44.83;;;24.95;;
48241;SDS011;34041;51.812;4.622;2022-11-28T19:40:55;43.27;;;24.63;;
48241;SDS011;34041;51.812;4.622;2022-11-28T19:43:55;35.92;;;22.15;;
48241;SDS011;34041;51.812;4.622;2022-11-28T19:46:55;33.30;;;22.08;;
48241;SDS011;34041;51.812;4.622;2022-11-28T19:49:56;34.38;;;20.23;;
48241;SDS011;34041;51.812;4.622;2022-11-28T19:52:56;38.60;;;18.83;;
48241;SDS011;34041;51.812;4.622;2022-11-28T19:56:00;36.23;;;20.67;;
48241;SDS011;34041;51.812;4.622;2022-11-28T19:59:01;28.40;;;18.67;;
48241;SDS011;34041;51.812;4.622;2022-11-28T20:02:01;24.00;;;18.27;;
48241;SDS011;34041;51.812;4.622;2022-11-28T20:05:03;27.35;;;17.48;;
48241;SDS011;34041;51.812;4.622;2022-11-28T20:08:03;26.98;;;18.60;;
48241;SDS011;34041;51.812;4.622;2022-11-28T20:11:09;26.60;;;17.92;;
48241;SDS011;34041;51.812;4.622;2022-11-28T20:14:10;27.60;;;17.42;;
48241;SDS011;34041;51.812;4.622;2022-11-28T20:17:11;22.23;;;16.38;;
48241;SDS011;34041;51.812;4.622;2022-11-28T20:20:11;23.80;;;16.53;;
48241;SDS011;34041;51.812;4.622;2022-11-28T20:23:12;22.40;;;16.50;;
48241;SDS011;34041;51.812;4.622;2022-11-28T20:26:12;24.90;;;16.00;;
48241;SDS011;34041;51.812;4.622;2022-11-28T20:29:14;22.83;;;16.13;;
48241;SDS011;34041;51.812;4.622;2022-11-28T20:32:14;24.33;;;15.80;;
48241;SDS011;34041;51.812;4.622;2022-11-28T20:35:15;23.67;;;15.00;;
48241;SDS011;34041;51.812;4.622;2022-11-28T20:38:16;20.63;;;15.13;;
48241;SDS011;34041;51.812;4.622;2022-11-28T20:41:18;18.63;;;14.63;;
48241;SDS011;34041;51.812;4.622;2022-11-28T20:44:18;18.27;;;13.82;;
48241;SDS011;34041;51.812;4.622;2022-11-28T20:47:19;17.92;;;14.80;;
48241;SDS011;34041;51.812;4.622;2022-11-28T20:50:19;26.37;;;15.70;;
48241;SDS011;34041;51.812;4.622;2022-11-28T20:53:19;19.20;;;14.17;;
48241;SDS011;34041;51.812;4.622;2022-11-28T20:56:20;23.42;;;14.27;;
48241;SDS011;34041;51.812;4.622;2022-11-28T20:59:21;25.42;;;14.82;;
48241;SDS011;34041;51.812;4.622;2022-11-28T21:02:21;21.35;;;12.77;;
48241;SDS011;34041;51.812;4.622;2022-11-28T21:05:21;18.65;;;13.18;;
48241;SDS011;34041;51.812;4.622;2022-11-28T21:08:22;23.50;;;12.87;;
48241;SDS011;34041;51.812;4.622;2022-11-28T21:11:23;22.60;;;15.18;;
48241;SDS011;34041;51.812;4.622;2022-11-28T21:14:23;19.77;;;13.05;;
48241;SDS011;34041;51.812;4.622;2022-11-28T21:17:23;17.42;;;12.90;;
48241;SDS011;34041;51.812;4.622;2022-11-28T21:20:24;19.25;;;13.63;;
48241;SDS011;34041;51.812;4.622;2022-11-28T21:23:24;19.23;;;13.23;;
48241;SDS011;34041;51.812;4.622;2022-11-28T21:26:25;17.37;;;12.97;;
48241;SDS011;34041;51.812;4.622;2022-11-28T21:29:26;20.38;;;13.80;;
48241;SDS011;34041;51.812;4.622;2022-11-28T21:32:26;17.75;;;11.90;;
48241;SDS011;34041;51.812;4.622;2022-11-28T21:35:26;17.85;;;13.80;;
48241;SDS011;34041;51.812;4.622;2022-11-28T21:38:26;20.88;;;12.65;;
48241;SDS011;34041;51.812;4.622;2022-11-28T21:41:28;20.67;;;13.55;;
48241;SDS011;34041;51.812;4.622;2022-11-28T21:44:29;19.23;;;13.35;;
48241;SDS011;34041;51.812;4.622;2022-11-28T21:47:29;18.58;;;12.63;;
48241;SDS011;34041;51.812;4.622;2022-11-28T21:50:29;18.03;;;11.43;;
48241;SDS011;34041;51.812;4.622;2022-11-28T21:53:30;14.97;;;11.63;;
48241;SDS011;34041;51.812;4.622;2022-11-28T21:56:30;17.63;;;12.02;;
48241;SDS011;34041;51.812;4.622;2022-11-28T21:59:30;19.87;;;12.87;;
48241;SDS011;34041;51.812;4.622;2022-11-28T22:02:31;14.67;;;11.67;;
48241;SDS011;34041;51.812;4.622;2022-11-28T22:05:31;16.80;;;12.00;;
48241;SDS011;34041;51.812;4.622;2022-11-28T22:08:32;16.63;;;12.15;;
48241;SDS011;34041;51.812;4.622;2022-11-28T22:11:33;14.80;;;11.52;;
48241;SDS011;34041;51.812;4.622;2022-11-28T22:14:33;12.95;;;10.95;;
48241;SDS011;34041;51.812;4.622;2022-11-28T22:17:33;15.63;;;11.30;;
48241;SDS011;34041;51.812;4.622;2022-11-28T22:20:34;14.15;;;10.63;;
48241;SDS011;34041;51.812;4.622;2022-11-28T22:23:37;15.63;;;11.90;;
48241;SDS011;34041;51.812;4.622;2022-11-28T22:26:38;13.50;;;10.88;;
48241;SDS011;34041;51.812;4.622;2022-11-28T22:29:38;14.17;;;9.93;;
48241;SDS011;34041;51.812;4.622;2022-11-28T22:32:38;13.70;;;10.20;;
48241;SDS011;34041;51.812;4.622;2022-11-28T22:35:38;13.13;;;10.70;;
48241;SDS011;34041;51.812;4.622;2022-11-28T22:38:39;14.60;;;11.77;;
48241;SDS011;34041;51.812;4.622;2022-11-28T22:41:39;16.15;;;11.68;;
48241;SDS011;34041;51.812;4.622;2022-11-28T22:44:40;14.75;;;10.80;;
48241;SDS011;34041;51.812;4.622;2022-11-28T22:47:40;19.33;;;12.53;;
48241;SDS011;34041;51.812;4.622;2022-11-28T22:50:40;13.40;;;10.48;;
48241;SDS011;34041;51.812;4.622;2022-11-28T22:53:40;12.43;;;9.65;;
48241;SDS011;34041;51.812;4.622;2022-11-28T22:56:41;13.40;;;10.88;;
48241;SDS011;34041;51.812;4.622;2022-11-28T22:59:41;14.13;;;10.27;;
48241;SDS011;34041;51.812;4.622;2022-11-28T23:02:41;13.13;;;10.80;;
48241;SDS011;34041;51.812;4.622;2022-11-28T23:05:41;13.47;;;10.50;;
48241;SDS011;34041;51.812;4.622;2022-11-28T23:08:42;15.47;;;10.30;;
48241;SDS011;34041;51.812;4.622;2022-11-28T23:11:42;13.05;;;9.45;;
48241;SDS011;34041;51.812;4.622;2022-11-28T23:14:42;14.43;;;10.50;;
48241;SDS011;34041;51.812;4.622;2022-11-28T23:17:43;19.17;;;11.00;;
48241;SDS011;34041;51.812;4.622;2022-11-28T23:20:43;14.40;;;11.00;;
48241;SDS011;34041;51.812;4.622;2022-11-28T23:23:43;14.50;;;10.60;;
48241;SDS011;34041;51.812;4.622;2022-11-28T23:26:45;15.00;;;10.48;;
48241;SDS011;34041;51.812;4.622;2022-11-28T23:29:45;12.77;;;10.05;;
48241;SDS011;34041;51.812;4.622;2022-11-28T23:32:45;13.45;;;11.10;;
48241;SDS011;34041;51.812;4.622;2022-11-28T23:35:46;12.57;;;10.65;;
48241;SDS011;34041;51.812;4.622;2022-11-28T23:38:46;15.23;;;10.57;;
48241;SDS011;34041;51.812;4.622;2022-11-28T23:41:47;13.07;;;10.73;;
48241;SDS011;34041;51.812;4.622;2022-11-28T23:44:48;11.70;;;9.73;;
48241;SDS011;34041;51.812;4.622;2022-11-28T23:47:48;17.90;;;12.10;;
48241;SDS011;34041;51.812;4.622;2022-11-28T23:50:48;11.40;;;10.13;;
48241;SDS011;34041;51.812;4.622;2022-11-28T23:53:48;12.53;;;10.20;;
48241;SDS011;34041;51.812;4.622;2022-11-28T23:56:50;12.52;;;10.15;;